logo tempoitalia

Diretta Meteo Russell, Stati Uniti (USA)lunedì 31 agosto ore 00:53

Mappa
Sereno 26 °C Poco Nuvoloso 24 Ore: T.min 26 T.max 39
Ponente Sud/Sud-Est Km/h 13 Punto di rugiada: 19 °C Umidità: 65% Visibilità: 10 Km
Il sole sorge alle: 07:03 Il sole tramonta alle: 20:07
31 Agosto 2026 00:53 tempo osservato: Poco Nuvoloso Poco Nuvoloso 26 65 1012 vento: Nord S/SE 13
30 Agosto 2026 23:53 tempo osservato: Sereno Sereno 27 61 1012 vento: Nord NE 9.3
30 Agosto 2026 22:53 tempo osservato: Sereno Sereno 28 58 1011 vento: Nord NE 14.8
30 Agosto 2026 21:53 tempo osservato: Sereno Sereno 28 58 1010 vento: Nord NE 13
30 Agosto 2026 20:53 tempo osservato: Sereno Sereno 29 54 1009 vento: Nord N/NE 11.1
30 Agosto 2026 19:53 tempo osservato: Sereno Sereno 33 43 1009 vento: Nord N 13
30 Agosto 2026 18:53 tempo osservato: Sereno Sereno 37 32 1009 vento: Nord N/NO 18.5
30 Agosto 2026 17:53 tempo osservato: Sereno Sereno 39 24 1008 vento: Nord O 16.7
30 Agosto 2026 16:53 tempo osservato: Sereno Sereno 39 24 1008 vento: Nord S 18.5
30 Agosto 2026 15:53 tempo osservato: Sereno Sereno 39 24 1009 vento: Nord SO 18.5
30 Agosto 2026 14:53 tempo osservato: Sereno Sereno 38 25 1010 vento: Nord O/SO 16.7
30 Agosto 2026 13:53 tempo osservato: Sereno Sereno 36 28 1010 vento: Nord S/SO 16.7
30 Agosto 2026 12:53 tempo osservato: Sereno Sereno 36 28 1011 vento: Nord O/SO 14.8
30 Agosto 2026 11:53 tempo osservato: Sereno Sereno 34 30 1011 vento: Nord O/SO 20.3
30 Agosto 2026 10:53 tempo osservato: Sereno Sereno 33 31 1010 vento: Nord O/SO 25.9
30 Agosto 2026 09:53 tempo osservato: Sereno Sereno 31 35 1010 vento: Nord S/SO 33.3
30 Agosto 2026 08:53 tempo osservato: Poco Nuvoloso Poco Nuvoloso 28 45 1010 vento: Nord S 27.8
30 Agosto 2026 07:53 tempo osservato: Sereno Sereno 27 44 1010 vento: Nord S 27.8
30 Agosto 2026 06:53 tempo osservato: Sereno Sereno 27 42 1010 vento: Nord S/SO 24
30 Agosto 2026 05:53 tempo osservato: Sereno Sereno 27 42 1009 vento: Nord S 29.6
30 Agosto 2026 04:53 tempo osservato: Sereno Sereno 28 39 1010 vento: Nord S 29.6
30 Agosto 2026 03:53 tempo osservato: Sereno Sereno 28 39 1010 vento: Nord S 29.6
30 Agosto 2026 02:53 tempo osservato: Sereno Sereno 28 39 1010 vento: Nord S 25.9
30 Agosto 2026 01:53 tempo osservato: Sereno Sereno 28 39 1010 vento: Nord S 25.9